South Roanoke, Virginia
Current Conditions -  °F | °C
As of 6:54 AM on Thursday 23 Oct 2014 (Local Time) from KROA Reporting Station
Few Clouds Few Clouds  
Wind Chill: 44°   Ceiling: Unl
Heat Index: 49°   Visibility: 10mi
Dew Point: 37°   Wind: 12mph
Humidity: 64%   Direction: 300°WNW
Pressure: 30.08"   Gusts: 24mph
Location:  37.224°N, 79.9199°W
Report Text: KROA 231054Z 30010G21KT 10SM FEW035 09/03 A3008 RMK AO2 SLP186 T00940028
Loading
Personal Weather Stations






























Interactive Weather Map
Tropical Storm Tracking
New forecast layout! Learn more

10-Day Weather Forecast

Advertisements
Track Severe Weather on mobile